Time;durP1;ratioP1;P1;durP2;ratioP2;P2;SDS_P1;SDS_P2;PMS_P1;PMS_P2;Temp;Humidity;BMP_temperature;BMP_pressure;BME280_temperature;BME280_humidity;BME280_pressure;Samples;Min_cycle;Max_cycle;Signal;HPM_P1;HPM_P2
2023/07/13 00:02:17;;;;;;;4.45;0.65;;;21.80;41.00;;;;;;4996760;28;20057;-57
2023/07/13 00:04:45;;;;;;;1.88;0.68;;;21.80;41.00;;;;;;4998185;28;20533;-56
2023/07/13 00:07:14;;;;;;;1.67;0.82;;;21.80;40.70;;;;;;4998102;28;20061;-56
2023/07/13 00:09:41;;;;;;;1.88;0.70;;;21.80;40.60;;;;;;4997077;28;20054;-51
2023/07/13 00:12:28;;;;;;;6.43;1.05;;;21.70;40.40;;;;;;4999818;28;20065;-57
2023/07/13 00:14:57;;;;;;;1.83;0.77;;;21.70;40.90;;;;;;4995655;28;20501;-53
2023/07/13 00:17:26;;;;;;;2.10;1.00;;;21.70;40.30;;;;;;4997845;28;20061;-53
2023/07/13 00:19:55;;;;;;;5.05;1.08;;;21.60;40.30;;;;;;4992708;28;20494;-56
2023/07/13 00:22:23;;;;;;;2.90;1.00;;;21.60;40.30;;;;;;4997239;28;20055;-59
2023/07/13 00:24:51;;;;;;;2.20;0.90;;;21.60;40.30;;;;;;4999968;28;20050;-56
2023/07/13 00:27:19;;;;;;;5.25;1.27;;;21.50;40.20;;;;;;4995448;28;20417;-55
2023/07/13 00:29:46;;;;;;;1.95;0.82;;;21.50;40.30;;;;;;4998022;28;20058;-59
2023/07/13 00:32:14;;;;;;;2.22;0.68;;;21.50;40.30;;;;;;4996906;28;20065;-57
2023/07/13 00:34:43;;;;;;;3.35;0.85;;;21.50;40.30;;;;;;4998164;28;20482;-57
2023/07/13 00:37:11;;;;;;;2.85;0.75;;;21.50;40.30;;;;;;4999220;28;20065;-54
2023/07/13 00:39:38;;;;;;;4.45;0.80;;;21.40;40.40;;;;;;4996341;28;20054;-59
2023/07/13 00:42:06;;;;;;;3.78;1.00;;;21.40;40.40;;;;;;4997686;28;20054;-57
2023/07/13 00:44:34;;;;;;;3.85;1.27;;;21.40;40.40;;;;;;4999170;28;20141;-54
2023/07/13 00:47:01;;;;;;;3.20;0.70;;;21.40;40.50;;;;;;4998030;28;20065;-55
2023/07/13 00:49:31;;;;;;;4.40;1.13;;;21.40;40.50;;;;;;4997225;28;20053;-53
2023/07/13 00:52:06;;;;;;;5.20;0.80;;;21.30;41.00;;;;;;4997217;28;20133;-52
2023/07/13 00:54:35;;;;;;;;;;;21.30;40.60;;;;;;4998837;28;20065;-58
2023/07/13 00:57:04;;;;;;;1.38;0.70;;;21.40;40.60;;;;;;4995372;28;20914;-54
2023/07/13 00:59:33;;;;;;;2.33;0.80;;;21.30;40.50;;;;;;4997319;28;20050;-55
2023/07/13 01:02:01;;;;;;;1.75;0.95;;;21.30;40.60;;;;;;4996546;28;20058;-56
2023/07/13 01:04:30;;;;;;;1.60;0.70;;;21.30;40.70;;;;;;5004585;23;20050;-59
2023/07/13 01:06:57;;;;;;;4.28;0.82;;;21.30;40.80;;;;;;4981877;28;20413;-58
2023/07/13 01:09:28;;;;;;;2.83;0.88;;;21.20;40.80;;;;;;4982923;28;20054;-57
2023/07/13 01:11:55;;;;;;;1.35;0.70;;;21.20;40.90;;;;;;4981895;28;20493;-58
2023/07/13 01:14:22;;;;;;;1.73;0.60;;;21.10;40.90;;;;;;4981581;28;20058;-58
2023/07/13 01:16:51;;;;;;;1.90;0.70;;;21.10;41.00;;;;;;4981418;28;20043;-58
2023/07/13 01:19:35;;;;;;;2.95;1.02;;;21.10;41.00;;;;;;4983076;28;20065;-59
2023/07/13 01:22:08;;;;;;;2.15;1.08;;;21.10;41.10;;;;;;4980753;28;20065;-59
2023/07/13 01:24:36;;;;;;;2.88;0.73;;;21.00;41.10;;;;;;4981404;28;20054;-58
2023/07/13 01:27:05;;;;;;;2.58;0.70;;;21.00;41.10;;;;;;4981149;28;20142;-59
2023/07/13 01:29:34;;;;;;;4.22;0.80;;;21.00;41.20;;;;;;4982020;28;20512;-58
2023/07/13 01:32:01;;;;;;;2.90;0.80;;;21.00;41.80;;;;;;4980461;28;20076;-54
2023/07/13 01:34:29;;;;;;;2.67;0.73;;;20.90;41.30;;;;;;4982517;28;20069;-59
2023/07/13 01:36:56;;;;;;;4.43;0.75;;;20.90;41.30;;;;;;4980282;28;20042;-59
2023/07/13 01:39:24;;;;;;;3.65;0.80;;;20.90;41.40;;;;;;4980780;28;20505;-58
2023/07/13 01:41:52;;;;;;;3.05;0.63;;;20.80;41.40;;;;;;4981150;28;20065;-59
2023/07/13 01:44:19;;;;;;;2.25;0.65;;;20.80;41.50;;;;;;4982254;28;20516;-59
2023/07/13 01:46:46;;;;;;;3.42;1.08;;;20.80;41.50;;;;;;4981369;28;20062;-58
2023/07/13 01:49:13;;;;;;;4.00;0.60;;;20.80;41.60;;;;;;4980698;28;20058;-59
2023/07/13 01:51:40;;;;;;;3.40;0.63;;;20.70;41.50;;;;;;4981831;28;20061;-59
2023/07/13 01:54:07;;;;;;;1.42;0.77;;;20.70;41.60;;;;;;4981974;28;20493;-59
2023/07/13 01:56:36;;;;;;;2.65;0.80;;;20.70;41.70;;;;;;4981044;28;20115;-59
2023/07/13 01:59:03;;;;;;;3.72;0.90;;;20.70;41.70;;;;;;4978559;28;20058;-57
2023/07/13 02:01:30;;;;;;;1.98;0.80;;;20.70;41.80;;;;;;4980612;28;20061;-57
2023/07/13 02:03:58;;;;;;;1.33;0.50;;;20.60;41.80;;;;;;4968784;28;20066;-58
2023/07/13 02:06:25;;;;;;;2.65;0.88;;;20.60;41.80;;;;;;4961869;28;20054;-59
2023/07/13 02:08:52;;;;;;;3.22;0.73;;;20.60;41.80;;;;;;4962647;28;20050;-59
2023/07/13 02:11:19;;;;;;;3.05;0.70;;;20.60;41.90;;;;;;4960493;28;20498;-56
2023/07/13 02:13:48;;;;;;;8.73;1.10;;;20.60;41.90;;;;;;4962299;28;20061;-47
2023/07/13 02:16:15;;;;;;;1.63;0.80;;;20.50;41.90;;;;;;4961722;28;20055;-53
2023/07/13 02:18:43;;;;;;;1.80;0.70;;;20.50;42.00;;;;;;4961121;28;20055;-47
2023/07/13 02:21:10;;;;;;;3.63;0.77;;;20.50;42.10;;;;;;4960384;28;20503;-51
2023/07/13 02:23:37;;;;;;;2.58;0.88;;;20.50;42.10;;;;;;4961629;28;20078;-56
2023/07/13 02:26:05;;;;;;;2.97;0.70;;;20.50;42.20;;;;;;4962380;28;20066;-54
2023/07/13 02:28:32;;;;;;;1.77;0.60;;;20.50;42.20;;;;;;4961652;28;20179;-51
2023/07/13 02:31:07;;;;;;;3.90;0.90;;;20.50;42.30;;;;;;4962016;28;20407;-52
2023/07/13 02:33:34;;;;;;;1.65;0.70;;;20.40;42.40;;;;;;4962693;28;20059;-47
2023/07/13 02:36:01;;;;;;;1.05;0.50;;;20.40;42.60;;;;;;4960906;28;20070;-51
2023/07/13 02:38:28;;;;;;;2.50;0.75;;;20.40;42.60;;;;;;4960342;28;20423;-49
2023/07/13 02:40:56;;;;;;;2.15;0.80;;;20.40;42.60;;;;;;4958681;28;20059;-53
2023/07/13 02:43:23;;;;;;;2.42;0.77;;;20.40;42.60;;;;;;4958946;28;20059;-47
2023/07/13 02:45:50;;;;;;;2.17;0.63;;;20.30;42.50;;;;;;4965499;28;20054;-49
2023/07/13 02:48:18;;;;;;;5.65;1.10;;;20.30;42.60;;;;;;4962583;28;20053;-55
2023/07/13 02:50:46;;;;;;;1.80;0.55;;;20.30;42.60;;;;;;4963898;28;20065;-52
2023/07/13 02:53:14;;;;;;;3.20;0.80;;;20.30;42.60;;;;;;4967414;28;20066;-46
2023/07/13 02:55:47;;;;;;;3.63;0.80;;;20.30;42.60;;;;;;4967785;28;20085;-47
2023/07/13 02:58:16;;;;;;;3.85;0.88;;;20.30;42.70;;;;;;4966288;28;20051;-48
2023/07/13 03:00:46;;;;;;;2.40;0.90;;;20.30;42.70;;;;;;4966034;28;20058;-48
2023/07/13 03:03:13;;;;;;;3.58;0.80;;;20.30;42.70;;;;;;4962773;28;20058;-46
2023/07/13 03:05:44;;;;;;;2.33;0.70;;;20.30;42.80;;;;;;4962654;28;20055;-45
2023/07/13 03:08:11;;;;;;;3.92;0.70;;;20.30;42.80;;;;;;4965431;28;20050;-48
2023/07/13 03:10:39;;;;;;;1.80;0.70;;;20.30;42.70;;;;;;4978425;28;20925;-45
2023/07/13 03:13:06;;;;;;;2.40;0.63;;;20.30;42.80;;;;;;4984818;28;20061;-46
2023/07/13 03:15:34;;;;;;;2.78;0.73;;;20.30;42.90;;;;;;4983366;28;20642;-50
2023/07/13 03:18:01;;;;;;;1.50;0.70;;;20.30;42.80;;;;;;4983448;28;20050;-55
2023/07/13 03:20:28;;;;;;;3.90;0.90;;;20.30;42.80;;;;;;4983521;28;20054;-50
2023/07/13 03:22:57;;;;;;;2.95;0.98;;;20.20;42.80;;;;;;4984521;28;20046;-52
2023/07/13 03:25:24;;;;;;;3.10;0.65;;;20.30;42.90;;;;;;4984235;28;20054;-59
2023/07/13 03:27:51;;;;;;;2.65;0.80;;;20.30;42.90;;;;;;4983676;28;20057;-59
2023/07/13 03:30:18;;;;;;;2.05;0.80;;;20.20;42.80;;;;;;4982317;28;20058;-59
2023/07/13 03:32:45;;;;;;;4.97;2.30;;;20.20;42.80;;;;;;4982615;28;20058;-56
2023/07/13 03:35:13;;;;;;;3.25;1.40;;;20.20;42.90;;;;;;4983370;28;20521;-58
2023/07/13 03:37:42;;;;;;;2.45;0.75;;;20.20;42.80;;;;;;4982208;28;20069;-59
2023/07/13 03:40:11;;;;;;;4.18;0.98;;;20.20;42.90;;;;;;4983013;28;20096;-58
2023/07/13 03:42:39;;;;;;;2.53;0.70;;;20.20;42.90;;;;;;4982313;28;20498;-58
2023/07/13 03:45:07;;;;;;;3.15;0.70;;;20.20;42.90;;;;;;4985662;28;20390;-58
2023/07/13 03:47:34;;;;;;;1.90;0.65;;;20.20;42.90;;;;;;4984020;28;20418;-58
2023/07/13 03:50:02;;;;;;;1.95;0.80;;;20.20;42.90;;;;;;4984299;28;20065;-58
2023/07/13 03:52:29;;;;;;;3.05;0.77;;;20.20;42.90;;;;;;4984924;28;20062;-51
2023/07/13 03:54:57;;;;;;;2.92;0.60;;;20.20;42.90;;;;;;4984984;28;20062;-56
2023/07/13 03:57:26;;;;;;;5.07;0.70;;;20.10;42.90;;;;;;4985049;28;20062;-56
2023/07/13 03:59:53;;;;;;;3.20;1.00;;;20.10;42.90;;;;;;4984821;28;20054;-48
2023/07/13 04:02:21;;;;;;;3.42;0.95;;;20.20;43.00;;;;;;4985119;28;20062;-55
2023/07/13 04:04:49;;;;;;;2.00;0.85;;;20.20;43.00;;;;;;4984357;28;20073;-50
2023/07/13 04:07:16;;;;;;;6.15;2.17;;;20.10;43.00;;;;;;4983014;28;20167;-54
2023/07/13 04:09:43;;;;;;;6.22;2.13;;;20.10;43.10;;;;;;4984193;28;20057;-55
2023/07/13 04:12:10;;;;;;;2.92;1.08;;;20.20;43.20;;;;;;4982847;28;20403;-52
2023/07/13 04:14:39;;;;;;;1.95;0.80;;;20.20;43.20;;;;;;4984883;28;20533;-55
2023/07/13 04:17:06;;;;;;;5.40;1.10;;;20.10;43.30;;;;;;4983680;28;20057;-56
2023/07/13 04:19:33;;;;;;;2.17;0.90;;;20.10;43.30;;;;;;4984204;28;20065;-56
2023/07/13 04:22:00;;;;;;;4.65;0.80;;;20.20;43.40;;;;;;4983760;28;20065;-51
2023/07/13 04:24:28;;;;;;;3.42;0.95;;;20.20;43.50;;;;;;4984290;28;20513;-55
2023/07/13 04:26:56;;;;;;;2.50;0.90;;;20.20;43.60;;;;;;4984024;28;20050;-54
2023/07/13 04:29:23;;;;;;;1.75;0.70;;;20.20;43.60;;;;;;4984610;28;20081;-54
2023/07/13 04:31:52;;;;;;;4.05;1.17;;;20.20;43.70;;;;;;4984874;28;20050;-47
2023/07/13 04:34:19;;;;;;;3.10;0.80;;;20.20;43.80;;;;;;4984656;28;20054;-53
2023/07/13 04:36:46;;;;;;;2.35;0.60;;;20.20;43.80;;;;;;4983221;28;20066;-52
2023/07/13 04:39:13;;;;;;;2.78;0.85;;;20.20;43.80;;;;;;4984651;28;20058;-51
2023/07/13 04:41:40;;;;;;;2.70;0.90;;;20.20;43.90;;;;;;4984179;28;20062;-55
2023/07/13 04:44:08;;;;;;;2.20;0.85;;;20.20;43.90;;;;;;4984922;28;21190;-52
2023/07/13 04:46:35;;;;;;;2.25;0.55;;;20.20;44.00;;;;;;4984381;28;20054;-49
2023/07/13 04:49:04;;;;;;;4.35;1.08;;;20.10;43.90;;;;;;4984689;28;20058;-55
2023/07/13 04:51:31;;;;;;;4.82;1.45;;;20.10;44.00;;;;;;4983391;28;20061;-52
2023/07/13 04:53:59;;;;;;;3.13;1.02;;;20.10;44.00;;;;;;4984071;28;20050;-55
2023/07/13 04:56:26;;;;;;;2.95;0.55;;;20.10;44.10;;;;;;4983741;28;20058;-54
2023/07/13 04:58:53;;;;;;;3.78;0.88;;;20.10;44.20;;;;;;4984477;28;20053;-56
2023/07/13 05:01:21;;;;;;;5.90;0.88;;;20.10;44.20;;;;;;4983734;28;20062;-49
2023/07/13 05:03:48;;;;;;;3.47;0.95;;;20.10;44.30;;;;;;4983377;28;20066;-55
2023/07/13 05:06:16;;;;;;;2.72;0.80;;;20.10;44.30;;;;;;4981892;28;20057;-55
2023/07/13 05:08:44;;;;;;;2.95;0.70;;;20.10;44.40;;;;;;4983047;28;20054;-56
2023/07/13 05:11:11;;;;;;;2.33;0.82;;;20.10;44.50;;;;;;4984503;28;20490;-57
2023/07/13 05:13:38;;;;;;;3.83;0.70;;;20.10;44.50;;;;;;4983036;28;20058;-56
2023/07/13 05:16:07;;;;;;;4.53;1.38;;;20.10;44.70;;;;;;4983719;28;20065;-57
2023/07/13 05:18:35;;;;;;;1.45;0.80;;;20.10;44.80;;;;;;4981456;28;20054;-55
2023/07/13 05:21:05;;;;;;;3.40;0.80;;;20.20;44.90;;;;;;4982863;28;20057;-57
2023/07/13 05:23:35;;;;;;;4.72;1.40;;;20.20;45.40;;;;;;4983784;28;20080;-55
2023/07/13 05:26:03;;;;;;;1.52;0.93;;;20.10;45.00;;;;;;4984040;28;20525;-56
2023/07/13 05:28:32;;;;;;;2.78;0.90;;;20.10;45.10;;;;;;4981096;28;20478;-57
2023/07/13 05:30:59;;;;;;;5.05;0.82;;;20.20;45.20;;;;;;4982988;28;20065;-54
2023/07/13 05:33:27;;;;;;;3.35;0.82;;;20.20;45.20;;;;;;4982188;28;20054;-56
2023/07/13 05:35:54;;;;;;;5.90;1.23;;;20.20;45.20;;;;;;4981906;28;20050;-58
2023/07/13 05:38:22;;;;;;;3.15;0.80;;;20.20;45.20;;;;;;4983141;28;20058;-57
2023/07/13 05:40:51;;;;;;;2.78;0.88;;;20.20;45.30;;;;;;4982407;28;20109;-55
2023/07/13 05:43:18;;;;;;;1.67;0.68;;;20.20;45.30;;;;;;4982584;28;20050;-53
2023/07/13 05:45:45;;;;;;;3.22;1.13;;;20.30;45.40;;;;;;4981348;28;20046;-47
2023/07/13 05:48:13;;;;;;;5.10;1.60;;;20.30;45.40;;;;;;4982119;28;20053;-48
2023/07/13 05:50:40;;;;;;;5.38;1.13;;;20.30;45.40;;;;;;4982283;28;20053;-49
2023/07/13 05:53:08;;;;;;;3.58;1.02;;;20.30;45.50;;;;;;4983771;28;20589;-48
2023/07/13 05:55:35;;;;;;;9.65;1.45;;;20.30;45.60;;;;;;4983254;28;20066;-46
2023/07/13 05:58:03;;;;;;;2.45;0.80;;;20.40;45.70;;;;;;4981525;28;20065;-45
2023/07/13 06:00:31;;;;;;;3.70;1.00;;;20.40;45.70;;;;;;4981232;28;20161;-50
2023/07/13 06:02:58;;;;;;;3.28;0.90;;;20.50;45.70;;;;;;4979636;28;20050;-47
2023/07/13 06:05:26;;;;;;;2.20;0.77;;;20.50;45.70;;;;;;4981356;28;20050;-47
2023/07/13 06:07:54;;;;;;;2.85;1.00;;;20.60;45.70;;;;;;4982041;28;20490;-45
2023/07/13 06:10:21;;;;;;;5.63;1.05;;;20.60;45.70;;;;;;4981725;28;20517;-46
2023/07/13 06:12:48;;;;;;;3.08;1.00;;;20.70;45.80;;;;;;4982417;28;20058;-44
2023/07/13 06:15:17;;;;;;;3.33;1.25;;;20.70;45.70;;;;;;4982605;28;20061;-45
2023/07/13 06:17:45;;;;;;;2.55;0.70;;;20.80;45.70;;;;;;4982127;28;20069;-47
2023/07/13 06:20:12;;;;;;;2.75;0.80;;;20.80;45.70;;;;;;4983217;28;20065;-44
2023/07/13 06:22:39;;;;;;;1.42;0.65;;;20.90;45.60;;;;;;4981562;28;20057;-46
2023/07/13 06:25:07;;;;;;;3.40;0.98;;;20.90;45.60;;;;;;4980644;28;20422;-46
2023/07/13 06:27:34;;;;;;;3.50;0.98;;;21.00;45.70;;;;;;4982247;28;20063;-53
2023/07/13 06:30:02;;;;;;;1.73;0.77;;;21.00;45.70;;;;;;4980647;28;20498;-50
2023/07/13 06:32:30;;;;;;;3.05;1.25;;;21.10;45.90;;;;;;4983316;28;20054;-51
2023/07/13 06:34:58;;;;;;;5.80;1.60;;;21.10;45.80;;;;;;4980206;28;20434;-48
2023/07/13 06:37:25;;;;;;;3.30;1.08;;;21.20;45.70;;;;;;4981697;28;20065;-45
2023/07/13 06:39:52;;;;;;;4.60;0.95;;;21.20;45.50;;;;;;4983052;28;20506;-46
2023/07/13 06:42:19;;;;;;;3.10;1.10;;;21.30;45.50;;;;;;4982260;28;20051;-47
2023/07/13 06:44:46;;;;;;;3.88;1.23;;;21.30;45.40;;;;;;4981407;28;20054;-48
2023/07/13 06:47:14;;;;;;;3.50;1.10;;;21.40;45.40;;;;;;4982157;28;20058;-47
2023/07/13 06:49:42;;;;;;;4.85;1.00;;;21.40;45.30;;;;;;4981227;28;20050;-48
2023/07/13 06:52:10;;;;;;;3.20;0.85;;;21.40;45.10;;;;;;4981938;28;20173;-46
2023/07/13 06:54:37;;;;;;;2.55;0.80;;;21.50;45.10;;;;;;4982274;28;20046;-52
2023/07/13 06:57:05;;;;;;;4.97;1.20;;;21.50;45.10;;;;;;4978784;28;20760;-50
2023/07/13 06:59:32;;;;;;;3.90;0.98;;;21.50;45.10;;;;;;4982326;28;20057;-51
2023/07/13 07:01:59;;;;;;;4.93;1.17;;;21.50;45.10;;;;;;4980868;28;20426;-51
2023/07/13 07:04:26;;;;;;;3.83;1.10;;;21.60;45.00;;;;;;4980678;28;20426;-51
2023/07/13 07:06:55;;;;;;;5.28;1.00;;;21.60;45.00;;;;;;4981290;28;20062;-56
2023/07/13 07:09:22;;;;;;;2.63;0.82;;;21.60;45.00;;;;;;4981965;28;20053;-51
2023/07/13 07:11:49;;;;;;;3.58;1.15;;;21.70;45.00;;;;;;4978905;28;20054;-50
2023/07/13 07:14:17;;;;;;;7.15;1.20;;;21.70;44.90;;;;;;4982440;28;20061;-50
2023/07/13 07:16:44;;;;;;;4.05;0.93;;;21.70;44.80;;;;;;4981214;28;20050;-51
2023/07/13 07:19:11;;;;;;;3.42;0.90;;;21.70;44.70;;;;;;4982095;28;20399;-49
2023/07/13 07:21:39;;;;;;;3.75;1.30;;;21.70;44.70;;;;;;4981830;28;20058;-49
2023/07/13 07:24:07;;;;;;;3.00;1.00;;;21.70;44.70;;;;;;4977232;28;20050;-49
2023/07/13 07:26:35;;;;;;;5.35;1.55;;;21.70;44.70;;;;;;4982020;28;20058;-51
2023/07/13 07:29:02;;;;;;;4.97;1.10;;;21.80;45.20;;;;;;4981189;28;20403;-51
2023/07/13 07:31:29;;;;;;;4.00;1.25;;;21.80;44.90;;;;;;4984660;28;20054;-48
2023/07/13 07:33:56;;;;;;;4.32;1.30;;;21.80;44.90;;;;;;4984134;28;20054;-55
2023/07/13 07:36:23;;;;;;;5.22;1.35;;;21.80;45.10;;;;;;4984461;28;20057;-52
2023/07/13 07:38:51;;;;;;;2.50;1.10;;;21.80;45.00;;;;;;4984687;28;20053;-53
2023/07/13 07:41:19;;;;;;;7.32;1.45;;;21.80;45.00;;;;;;4984307;28;20413;-50
2023/07/13 07:43:46;;;;;;;4.13;1.38;;;21.80;45.20;;;;;;4985118;28;20061;-56
2023/07/13 07:46:14;;;;;;;6.13;1.45;;;21.80;45.10;;;;;;4983516;28;20066;-56
2023/07/13 07:48:41;;;;;;;3.05;1.30;;;21.90;45.00;;;;;;4983182;28;20050;-57
2023/07/13 07:51:08;;;;;;;6.70;1.50;;;21.80;44.80;;;;;;4982412;28;20766;-58
2023/07/13 07:53:35;;;;;;;5.57;1.38;;;21.80;44.60;;;;;;4984495;28;20069;-58
2023/07/13 07:56:02;;;;;;;3.78;1.27;;;21.80;44.80;;;;;;4984079;28;20062;-57
2023/07/13 07:58:31;;;;;;;3.60;1.15;;;21.80;44.90;;;;;;4982308;28;20494;-58
2023/07/13 08:01:04;;;;;;;5.28;1.00;;;21.80;45.00;;;;;;4984055;28;20061;-58
2023/07/13 08:03:34;;;;;;;2.90;1.30;;;21.80;45.30;;;;;;4982268;28;20065;-57
2023/07/13 08:06:01;;;;;;;5.50;1.30;;;21.80;45.50;;;;;;4983441;28;20062;-50
2023/07/13 08:08:29;;;;;;;7.20;1.65;;;21.80;45.10;;;;;;4984672;28;20046;-47
2023/07/13 08:10:56;;;;;;;3.10;1.17;;;21.80;45.30;;;;;;4982868;28;20054;-51
2023/07/13 08:13:23;;;;;;;4.93;1.15;;;21.80;45.20;;;;;;4983843;28;20050;-48
2023/07/13 08:15:52;;;;;;;2.75;1.02;;;21.90;45.20;;;;;;4980949;28;20054;-46
2023/07/13 08:18:19;;;;;;;6.38;1.63;;;21.90;45.20;;;;;;4983733;28;20062;-49
2023/07/13 08:20:46;;;;;;;4.05;1.40;;;21.90;45.20;;;;;;4982183;28;20057;-57
2023/07/13 08:23:12;;;;;;;4.28;1.17;;;22.00;45.10;;;;;;4984921;28;20517;-58
2023/07/13 08:25:40;;;;;;;8.90;1.67;;;22.00;45.20;;;;;;4984495;28;20569;-44
2023/07/13 08:28:07;;;;;;;3.65;1.02;;;22.00;44.90;;;;;;4982291;28;20057;-48
2023/07/13 08:30:36;;;;;;;1.48;0.80;;;22.10;45.00;;;;;;4984219;28;20386;-50
2023/07/13 08:33:04;;;;;;;3.15;1.13;;;22.10;44.80;;;;;;4984345;28;20065;-51
2023/07/13 08:35:32;;;;;;;7.65;3.83;;;22.10;44.80;;;;;;4980494;28;20609;-50
2023/07/13 08:38:00;;;;;;;7.75;2.15;;;22.20;44.60;;;;;;4982973;28;20054;-51
2023/07/13 08:40:28;;;;;;;3.67;1.55;;;22.20;44.80;;;;;;4983679;28;20046;-47
2023/07/13 08:42:58;;;;;;;3.28;1.35;;;22.30;44.90;;;;;;4982508;28;20589;-48
2023/07/13 08:45:32;;;;;;;4.05;1.40;;;22.30;44.90;;;;;;4981878;28;20533;-46
2023/07/13 08:48:05;;;;;;;5.10;1.30;;;22.30;45.00;;;;;;4980223;28;20046;-47
2023/07/13 08:50:39;;;;;;;4.28;1.58;;;22.40;45.10;;;;;;4977841;28;20409;-47
2023/07/13 08:53:10;;;;;;;5.10;1.38;;;22.40;45.00;;;;;;4982760;28;20526;-46
2023/07/13 08:55:39;;;;;;;4.50;1.23;;;22.50;44.70;;;;;;4983025;28;20058;-46
2023/07/13 08:58:11;;;;;;;5.82;1.30;;;22.50;44.80;;;;;;4983144;28;20273;-48
2023/07/13 09:00:49;;;;;;;3.35;1.10;;;22.50;44.70;;;;;;4983330;28;20046;-44
2023/07/13 09:03:23;;;;;;;3.72;1.30;;;22.60;44.70;;;;;;4982227;28;20514;-48
2023/07/13 09:05:54;;;;;;;;;;;22.60;44.80;;;;;;4984311;28;20438;-49
2023/07/13 09:08:37;;;;;;;3.63;1.30;;;22.70;44.80;;;;;;4982865;28;19921;-46
2023/07/13 09:11:23;;;;;;;2.88;1.20;;;22.70;44.70;;;;;;4981585;28;20632;-48
2023/07/13 09:13:59;;;;;;;5.70;1.20;;;22.80;44.20;;;;;;4981583;28;20061;-58
2023/07/13 09:16:26;;;;;;;6.45;1.42;;;22.80;44.40;;;;;;4983776;28;20058;-57
2023/07/13 09:19:00;;;;;;;3.50;0.90;;;22.80;44.40;;;;;;4981196;28;20536;-57
2023/07/13 09:21:32;;;;;;;6.43;1.80;;;22.90;44.20;;;;;;4982765;28;20665;-58
2023/07/13 09:24:21;;;;;;;3.38;1.30;;;23.00;44.00;;;;;;4983696;28;20054;-55
2023/07/13 09:26:50;;;;;;;3.15;1.10;;;23.00;43.80;;;;;;4981083;28;20054;-57
2023/07/13 09:29:22;;;;;;;3.55;1.08;;;23.00;43.50;;;;;;4982846;28;20058;-57
2023/07/13 09:31:55;;;;;;;2.88;0.73;;;23.10;43.10;;;;;;4981638;28;20055;-52
2023/07/13 09:34:22;;;;;;;1.95;0.85;;;23.10;43.20;;;;;;4981396;28;20054;-57
2023/07/13 09:36:49;;;;;;;2.13;0.80;;;23.20;43.10;;;;;;4977781;28;20054;-57
2023/07/13 09:39:25;;;;;;;1.83;0.75;;;23.20;42.90;;;;;;4982914;28;20422;-56
2023/07/13 09:41:59;;;;;;;2.20;0.82;;;23.30;42.90;;;;;;4983055;28;20051;-57
2023/07/13 09:44:32;;;;;;;2.83;0.70;;;23.30;42.80;;;;;;4982711;28;20067;-58
2023/07/13 09:46:59;;;;;;;11.60;1.20;;;23.40;42.90;;;;;;4982521;28;20054;-58
2023/07/13 09:49:28;;;;;;;5.47;1.38;;;23.50;42.60;;;;;;4981774;28;20069;-56
2023/07/13 09:52:01;;;;;;;4.82;1.00;;;23.50;42.50;;;;;;4979947;28;20055;-54
2023/07/13 09:54:29;;;;;;;3.08;0.82;;;23.60;42.20;;;;;;4981713;28;20054;-57
2023/07/13 09:56:59;;;;;;;3.00;0.70;;;23.70;42.10;;;;;;4983361;28;20058;-57
2023/07/13 09:59:31;;;;;;;2.22;0.75;;;23.70;41.90;;;;;;4983443;28;20062;-59
2023/07/13 10:01:58;;;;;;;1.92;0.90;;;23.80;41.90;;;;;;4978953;28;20046;-54
2023/07/13 10:04:31;;;;;;;4.70;1.23;;;23.80;41.30;;;;;;4981358;28;20061;-58
2023/07/13 10:07:07;;;;;;;4.60;1.45;;;23.90;40.50;;;;;;4981497;28;20053;-57
2023/07/13 10:09:34;;;;;;;3.53;1.10;;;23.90;40.60;;;;;;4982470;28;20418;-58
2023/07/13 10:12:03;;;;;;;6.05;1.45;;;24.00;40.80;;;;;;4982056;28;20050;-56
2023/07/13 10:14:31;;;;;;;11.95;1.83;;;24.00;41.00;;;;;;4983089;28;20070;-58
2023/07/13 10:17:02;;;;;;;5.85;1.42;;;24.00;40.70;;;;;;4980206;28;20058;-55
2023/07/13 10:19:33;;;;;;;5.90;1.20;;;24.00;40.80;;;;;;4980816;28;20058;-50
2023/07/13 10:22:03;;;;;;;3.03;1.20;;;24.00;41.00;;;;;;4981258;28;20050;-57
2023/07/13 10:24:33;;;;;;;3.65;1.10;;;24.00;40.30;;;;;;4982087;28;20061;-45
2023/07/13 10:27:16;;;;;;;4.10;0.95;;;24.00;40.30;;;;;;4974321;28;20054;-45
2023/07/13 10:29:47;;;;;;;4.07;1.10;;;24.00;40.60;;;;;;4982926;28;20054;-45
2023/07/13 10:32:16;;;;;;;3.58;1.00;;;24.00;41.10;;;;;;4979524;28;20524;-48
2023/07/13 10:34:47;;;;;;;4.40;1.10;;;24.10;41.00;;;;;;4981999;28;20069;-50
2023/07/13 10:37:21;;;;;;;4.07;0.82;;;24.10;40.40;;;;;;4980705;28;20062;-55
2023/07/13 10:39:49;;;;;;;3.20;1.05;;;24.10;40.40;;;;;;4982440;28;20061;-49
2023/07/13 10:42:28;;;;;;;7.55;1.60;;;24.20;39.70;;;;;;4979605;28;20058;-51
2023/07/13 10:44:55;;;;;;;4.78;1.23;;;24.20;40.20;;;;;;4981356;28;20054;-54
2023/07/13 10:47:23;;;;;;;3.38;1.10;;;24.20;39.70;;;;;;4982381;28;20494;-49
2023/07/13 10:49:56;;;;;;;3.50;1.00;;;24.20;39.40;;;;;;4980686;28;20414;-51
2023/07/13 10:52:46;;;;;;;2.83;1.20;;;24.20;39.80;;;;;;4979139;28;20490;-44
2023/07/13 10:55:37;;;;;;;4.03;0.80;;;24.20;39.90;;;;;;4981308;28;20054;-50
2023/07/13 10:58:15;;;;;;;3.65;1.08;;;24.30;40.30;;;;;;4981897;28;20061;-51
2023/07/13 11:00:49;;;;;;;4.85;1.42;;;24.30;40.50;;;;;;4982470;28;20058;-52
2023/07/13 11:03:19;;;;;;;2.90;1.08;;;24.40;40.10;;;;;;4981270;28;20069;-51
2023/07/13 11:05:51;;;;;;;4.88;1.27;;;24.40;40.20;;;;;;4982381;28;20053;-49
2023/07/13 11:08:32;;;;;;;4.25;0.90;;;24.40;40.40;;;;;;4986070;28;20717;-47
2023/07/13 11:11:00;;;;;;;7.82;1.63;;;24.40;41.60;;;;;;4986126;28;20061;-49
2023/07/13 11:13:58;;;;;;;6.03;1.52;;;24.40;41.10;;;;;;4983941;28;20447;-54
2023/07/13 11:16:45;;;;;;;4.68;1.25;;;24.50;40.80;;;;;;4984273;28;20058;-53
2023/07/13 11:19:41;;;;;;;3.28;1.13;;;24.50;41.00;;;;;;4985933;28;20058;-51
2023/07/13 11:22:23;;;;;;;5.13;1.20;;;24.50;40.20;;;;;;4975642;28;20054;-56
2023/07/13 11:25:22;;;;;;;3.97;1.13;;;24.50;39.80;;;;;;4985448;28;20410;-53
2023/07/13 11:27:53;;;;;;;5.10;1.27;;;24.50;40.30;;;;;;4985052;28;20050;-50
2023/07/13 11:30:32;;;;;;;2.83;1.23;;;24.50;39.90;;;;;;4985787;28;20062;-52
2023/07/13 11:33:15;;;;;;;4.10;1.42;;;24.50;41.00;;;;;;4985862;28;20054;-50
2023/07/13 11:35:48;;;;;;;5.60;1.33;;;24.50;41.00;;;;;;4983140;28;20780;-57
2023/07/13 11:38:19;;;;;;;4.93;1.63;;;24.50;40.20;;;;;;4984329;28;20054;-55
2023/07/13 11:40:47;;;;;;;4.00;1.42;;;24.50;41.10;;;;;;4983931;28;20050;-55
2023/07/13 11:43:16;;;;;;;8.38;1.45;;;24.40;40.40;;;;;;4984358;28;20050;-54
2023/07/13 11:45:45;;;;;;;3.88;1.27;;;24.50;39.10;;;;;;4985504;28;20057;-56
2023/07/13 11:48:24;;;;;;;2.80;0.63;;;24.40;39.10;;;;;;4984033;28;20054;-57
2023/07/13 11:50:55;;;;;;;3.25;0.95;;;24.30;39.50;;;;;;4984747;28;20065;-58
2023/07/13 11:53:24;;;;;;;5.90;1.20;;;24.30;39.60;;;;;;4982651;28;20062;-58
2023/07/13 11:55:52;;;;;;;2.80;0.65;;;24.20;39.30;;;;;;4984671;28;20430;-59
2023/07/13 11:58:26;;;;;;;2.38;1.00;;;24.30;38.40;;;;;;4984704;28;20057;-56
2023/07/13 12:00:56;;;;;;;1.23;0.60;;;24.20;37.80;;;;;;4984291;28;20422;-54
2023/07/13 12:03:25;;;;;;;5.70;1.13;;;24.30;38.10;;;;;;4983663;28;20505;-57
2023/07/13 12:06:01;;;;;;;2.35;1.00;;;24.30;37.10;;;;;;4983565;28;20430;-57
2023/07/13 12:08:30;;;;;;;2.38;0.70;;;24.30;37.60;;;;;;4983219;28;20502;-57
2023/07/13 12:10:59;;;;;;;1.45;0.77;;;24.30;37.90;;;;;;4984105;28;20062;-57
2023/07/13 12:13:29;;;;;;;1.75;0.60;;;24.40;38.20;;;;;;4982909;28;20533;-46
2023/07/13 12:15:58;;;;;;;2.88;0.85;;;24.50;38.10;;;;;;4984463;28;20413;-55
2023/07/13 12:18:31;;;;;;;3.55;0.88;;;24.50;37.90;;;;;;4983050;28;20081;-57
2023/07/13 12:20:59;;;;;;;2.33;0.80;;;24.60;37.80;;;;;;4983026;28;20057;-47
2023/07/13 12:23:30;;;;;;;2.60;0.88;;;24.60;37.00;;;;;;4985196;28;20050;-59
2023/07/13 12:25:58;;;;;;;4.32;1.10;;;24.60;36.50;;;;;;4984288;28;20497;-58
2023/07/13 12:28:33;;;;;;;1.40;0.80;;;24.60;36.60;;;;;;4981968;28;20054;-58
2023/07/13 12:31:06;;;;;;;1.85;0.70;;;24.70;36.50;;;;;;4983403;28;20050;-59
2023/07/13 12:33:34;;;;;;;2.97;0.77;;;24.70;37.60;;;;;;4981762;28;20042;-56
2023/07/13 12:36:03;;;;;;;2.63;0.77;;;24.70;37.30;;;;;;4979602;28;20065;-58
2023/07/13 12:38:32;;;;;;;4.93;1.20;;;24.70;36.60;;;;;;4980010;28;20066;-58
2023/07/13 12:41:03;;;;;;;3.80;1.05;;;24.70;36.10;;;;;;4983216;28;20422;-58
2023/07/13 12:43:38;;;;;;;2.85;0.90;;;24.70;36.40;;;;;;4982418;28;20061;-54
2023/07/13 12:46:20;;;;;;;1.70;0.85;;;24.70;36.60;;;;;;4982441;28;20053;-59
2023/07/13 12:48:51;;;;;;;5.68;0.82;;;24.70;36.50;;;;;;4981965;28;20054;-58
2023/07/13 12:51:22;;;;;;;3.17;0.95;;;24.70;36.70;;;;;;4980417;28;20058;-60
2023/07/13 12:53:53;;;;;;;4.03;1.17;;;24.80;36.90;;;;;;4980593;28;20391;-57
2023/07/13 12:56:23;;;;;;;3.60;1.30;;;24.80;37.00;;;;;;4981721;28;20487;-58
2023/07/13 12:58:56;;;;;;;1.77;0.70;;;24.80;36.80;;;;;;4980196;28;20061;-57
2023/07/13 13:01:28;;;;;;;1.65;0.80;;;24.80;37.20;;;;;;4982638;28;20050;-58